createdAt,value
2019-02-10T03:08:14.742Z,65
2019-02-10T03:09:04.201Z,65.3
2019-02-10T03:09:54.775Z,65.3
2019-02-10T03:10:44.634Z,65.3
2019-02-10T03:11:34.628Z,65.3
2019-02-10T03:12:24.677Z,65.4
2019-02-10T03:13:14.973Z,65.5
2019-02-10T03:14:04.784Z,65.6
2019-02-10T03:14:55.098Z,65.6
2019-02-10T03:15:44.964Z,65.6
2019-02-10T03:16:35.201Z,65.6
2019-02-10T03:17:24.977Z,65.8
2019-02-10T03:18:15.494Z,65.9
2019-02-10T03:19:05.092Z,65.8
2019-02-10T03:19:55.178Z,65.9
2019-02-10T03:20:45.474Z,65.9
2019-02-10T03:21:35.313Z,66.1
2019-02-10T03:22:25.627Z,66.1
2019-02-10T03:23:15.674Z,66.1
2019-02-10T03:24:05.751Z,66.1
2019-02-10T03:24:55.281Z,66.1
2019-02-10T03:25:45.606Z,66.1
2019-02-10T03:26:35.920Z,66.3
2019-02-10T03:27:25.415Z,66.3
2019-02-10T03:28:16.000Z,66.3
2019-02-10T03:29:05.784Z,66.4
2019-02-10T03:29:55.887Z,66.4
2019-02-10T03:30:46.244Z,66.4
2019-02-10T03:31:36.406Z,66.4
2019-02-10T03:32:25.825Z,66.4
2019-02-10T03:33:16.543Z,66.6
2019-02-10T03:34:06.556Z,66.6
2019-02-10T03:34:56.473Z,66.6
2019-02-10T03:35:45.680Z,66.6
2019-02-10T03:36:36.303Z,66.6
2019-02-10T03:37:30.858Z,66.6
2019-02-10T03:38:16.486Z,66.6
2019-02-10T03:39:06.455Z,66.7
2019-02-10T03:39:56.803Z,66.8
2019-02-10T03:40:46.298Z,66.8
2019-02-10T03:41:36.920Z,66.8
2019-02-10T03:42:26.738Z,66.8
2019-02-10T03:43:16.778Z,66.8
2019-02-10T03:44:06.817Z,66.8
2019-02-10T03:44:56.605Z,66.8
2019-02-10T03:45:47.218Z,66.9
2019-02-10T03:46:37.009Z,66.9
2019-02-10T03:47:27.423Z,66.9
2019-02-10T03:48:17.398Z,66.9
2019-02-10T03:49:06.885Z,66.9
2019-02-10T03:49:57.518Z,66.9
2019-02-10T03:50:47.279Z,66.8
2019-02-10T03:51:37.639Z,66.8
2019-02-10T03:52:27.135Z,66.9
2019-02-10T03:53:17.733Z,66.8
2019-02-10T03:54:07.265Z,66.8
2019-02-10T03:54:57.543Z,66.8
2019-02-10T03:55:47.993Z,66.8
2019-02-10T03:56:37.441Z,66.8
2019-02-10T03:57:28.014Z,66.8
2019-02-10T03:58:18.075Z,66.8
2019-02-10T03:59:07.898Z,66.8
2019-02-10T03:59:58.159Z,66.8
2019-02-10T04:00:47.967Z,66.8
2019-02-10T04:01:38.296Z,66.8
2019-02-10T04:02:27.834Z,66.8
2019-02-10T04:03:18.194Z,66.8
2019-02-10T04:04:08.216Z,66.7
2019-02-10T04:04:58.537Z,66.7
2019-02-10T04:05:48.596Z,66.7
2019-02-10T04:06:38.364Z,66.7
2019-02-10T04:07:38.133Z,66.7
2019-02-10T04:08:18.762Z,66.6
2019-02-10T04:09:08.840Z,66.7
2019-02-10T04:09:58.573Z,66.6
2019-02-10T04:10:48.999Z,66.6
2019-02-10T04:11:38.419Z,66.6
2019-02-10T04:12:28.771Z,66.6
2019-02-10T04:13:19.078Z,66.6
2019-02-10T04:14:09.221Z,66.6
2019-02-10T04:14:58.683Z,66.6
2019-02-10T04:15:48.703Z,66.6
2019-02-10T04:16:39.396Z,66.6
2019-02-10T04:17:29.386Z,66.6
2019-02-10T04:18:19.473Z,66.5
2019-02-10T04:19:09.491Z,66.6
2019-02-10T04:19:59.330Z,66.5
2019-02-10T04:20:49.318Z,66.5
2019-02-10T04:21:39.396Z,66.5
2019-02-10T04:22:29.791Z,66.5
2019-02-10T04:23:19.517Z,66.5
2019-02-10T04:24:09.879Z,66.4
2019-02-10T04:24:59.907Z,66.4
2019-02-10T04:25:49.732Z,66.4
2019-02-10T04:26:39.718Z,66.4
2019-02-10T04:27:30.078Z,66.4
2019-02-10T04:28:19.605Z,66.4
2019-02-10T04:29:09.911Z,66.4
2019-02-10T04:30:00.289Z,66.4
2019-02-10T04:30:50.285Z,66.4
2019-02-10T04:31:40.357Z,66.4
2019-02-10T04:32:30.431Z,66.4
2019-02-10T04:33:20.482Z,66.4
2019-02-10T04:34:10.644Z,66.4
2019-02-10T04:34:59.774Z,66.3
2019-02-10T04:35:50.368Z,66.3
2019-02-10T04:36:40.413Z,66.3
2019-02-10T04:37:30.189Z,66.3
2019-02-10T04:38:20.530Z,66.3
2019-02-10T04:39:10.612Z,66.3
2019-02-10T04:40:00.942Z,66.3
2019-02-10T04:40:50.709Z,66.3
2019-02-10T04:41:40.548Z,66.3
2019-02-10T04:42:30.552Z,66.3
2019-02-10T04:43:20.866Z,66.3
2019-02-10T04:44:10.659Z,66.3
2019-02-10T04:45:01.121Z,66.3
2019-02-10T04:45:50.782Z,66.2
2019-02-10T04:46:40.559Z,66.2
2019-02-10T04:47:31.449Z,66.2
2019-02-10T04:48:20.982Z,66.2
2019-02-10T04:49:11.296Z,66.2
2019-02-10T04:50:01.096Z,66.1
2019-02-10T04:50:51.396Z,66.2
2019-02-10T04:51:41.743Z,66.1
2019-02-10T04:52:31.776Z,66.1
2019-02-10T04:53:21.857Z,66.1
2019-02-10T04:54:11.641Z,66.1
2019-02-10T04:55:01.562Z,66.1
2019-02-10T04:55:52.031Z,66.1
2019-02-10T04:56:41.809Z,66.1
2019-02-10T04:57:31.881Z,66.1
2019-02-10T04:58:21.929Z,66.1
2019-02-10T04:59:11.983Z,66.1
2019-02-10T05:00:02.014Z,66.1
2019-02-10T05:00:52.338Z,66.1
2019-02-10T05:01:42.426Z,66.1
2019-02-10T05:02:32.254Z,66.1
2019-02-10T05:03:21.703Z,66
2019-02-10T05:04:12.033Z,66
2019-02-10T05:05:02.429Z,66
2019-02-10T05:05:52.737Z,66
2019-02-10T05:06:42.578Z,66
2019-02-10T05:07:32.548Z,66
2019-02-10T05:08:22.860Z,65.9
2019-02-10T05:09:12.663Z,65.9
2019-02-10T05:10:02.862Z,65.9
2019-02-10T05:10:52.800Z,65.9
2019-02-10T05:11:43.155Z,65.9
2019-02-10T05:12:32.885Z,65.9
2019-02-10T05:13:22.955Z,65.9
2019-02-10T05:15:03.052Z,65.9
2019-02-10T05:15:53.165Z,65.9
2019-02-10T05:16:45.471Z,65.9
2019-02-10T05:17:33.236Z,65.9
2019-02-10T05:18:23.563Z,65.9
2019-02-10T05:19:13.382Z,65.9
2019-02-10T05:20:03.792Z,65.8
2019-02-10T05:20:53.172Z,65.8
2019-02-10T05:21:43.233Z,65.8
2019-02-10T05:22:33.569Z,65.8
2019-02-10T05:23:23.359Z,65.8
2019-02-10T05:24:14.072Z,65.8
2019-02-10T05:25:04.036Z,65.8
2019-02-10T05:25:54.101Z,65.8
2019-02-10T05:26:43.561Z,65.8
2019-02-10T05:27:34.221Z,65.8
2019-02-10T05:28:24.268Z,65.8
2019-02-10T05:29:14.041Z,65.8
2019-02-10T05:30:03.908Z,65.8
2019-02-10T05:30:54.188Z,65.8
2019-02-10T05:31:44.305Z,65.8
2019-02-10T05:32:34.564Z,65.8
2019-02-10T05:33:24.404Z,65.7
2019-02-10T05:34:14.659Z,65.7
2019-02-10T05:35:04.801Z,65.7
2019-02-10T05:35:54.494Z,65.7
2019-02-10T05:36:44.315Z,65.7
2019-02-10T05:37:34.901Z,65.6
2019-02-10T05:38:24.915Z,65.6
2019-02-10T05:39:15.001Z,65.6
2019-02-10T05:40:04.530Z,65.6
2019-02-10T05:40:55.108Z,65.6
2019-02-10T05:41:45.200Z,65.6
2019-02-10T05:42:35.021Z,65.6
2019-02-10T05:43:25.303Z,65.6
2019-02-10T05:44:15.388Z,65.6
2019-02-10T05:45:05.393Z,65.6
2019-02-10T05:45:55.516Z,65.6
2019-02-10T05:46:45.253Z,65.6
2019-02-10T05:47:35.344Z,65.6
2019-02-10T05:48:25.366Z,65.6
2019-02-10T05:49:15.143Z,65.5
2019-02-10T05:50:05.463Z,65.6
2019-02-10T05:50:55.512Z,65.5
2019-02-10T05:51:45.632Z,65.5
2019-02-10T05:52:35.938Z,65.5
2019-02-10T05:53:25.688Z,65.5
2019-02-10T05:54:15.731Z,65.4
2019-02-10T05:55:05.882Z,65.4
2019-02-10T05:55:56.150Z,65.4
2019-02-10T05:56:45.923Z,65.4
2019-02-10T05:57:36.253Z,65.4
2019-02-10T05:58:25.480Z,65.4
2019-02-10T05:59:16.087Z,65.4
2019-02-10T06:00:06.431Z,65.4
2019-02-10T06:00:55.710Z,65.4
2019-02-10T06:01:46.532Z,65.4
2019-02-10T06:02:36.586Z,65.4
2019-02-10T06:03:26.427Z,65.4
2019-02-10T06:04:16.724Z,65.4
2019-02-10T06:06:14.448Z,65.3
2019-02-10T06:07:04.603Z,65.4
2019-02-10T06:07:54.537Z,65.3
2019-02-10T06:08:44.709Z,65.3
2019-02-10T06:09:34.441Z,65.3
2019-02-10T06:10:24.459Z,65.3
2019-02-10T06:11:15.004Z,65.3
2019-02-10T06:12:04.837Z,65.3
2019-02-10T06:12:55.061Z,65.3
2019-02-10T06:13:44.680Z,65.3
2019-02-10T06:14:35.028Z,65.3
2019-02-10T06:15:25.071Z,65.3
2019-02-10T06:16:14.830Z,65.3
2019-02-10T06:17:04.904Z,65.3
2019-02-10T06:17:54.949Z,65.3
2019-02-10T06:18:45.291Z,65.2
2019-02-10T06:19:35.281Z,65.2
2019-02-10T06:20:25.396Z,65.2
2019-02-10T06:21:16.109Z,65.2
2019-02-10T06:22:19.610Z,65.2
2019-02-10T06:22:55.760Z,65.2
2019-02-10T06:23:45.358Z,65.1
2019-02-10T06:24:35.641Z,65.2
2019-02-10T06:25:25.468Z,65.1
2019-02-10T06:26:15.521Z,65.1
2019-02-10T06:27:05.336Z,65.1
2019-02-10T06:27:55.934Z,65.1
2019-02-10T06:28:44.883Z,65.1
2019-02-10T06:29:35.483Z,65.1
2019-02-10T06:30:25.821Z,65.1
2019-02-10T06:31:15.600Z,65.1
2019-02-10T06:32:05.956Z,65.1
2019-02-10T06:32:55.978Z,65.1
2019-02-10T06:33:46.030Z,65.1
2019-02-10T06:34:35.535Z,65
2019-02-10T06:35:25.411Z,65
2019-02-10T06:36:18.006Z,65.1
2019-02-10T06:37:05.764Z,65
2019-02-10T06:37:55.783Z,65
2019-02-10T06:38:46.420Z,65
2019-02-10T06:39:36.779Z,65
2019-02-10T06:40:26.227Z,65
2019-02-10T06:41:16.827Z,64.9
2019-02-10T06:42:06.338Z,64.9
2019-02-10T06:42:56.395Z,64.9
2019-02-10T06:43:46.709Z,64.9
2019-02-10T06:44:36.217Z,64.9
2019-02-10T06:45:26.827Z,64.9
2019-02-10T06:46:16.748Z,64.9
2019-02-10T06:47:06.469Z,64.9
2019-02-10T06:47:58.310Z,64.9
2019-02-10T06:48:46.845Z,64.9
2019-02-10T06:49:37.127Z,64.9
2019-02-10T06:50:27.449Z,64.9
2019-02-10T06:51:16.963Z,64.9
2019-02-10T06:52:07.557Z,64.9
2019-02-10T06:52:57.071Z,64.8
2019-02-10T06:53:47.409Z,64.8
2019-02-10T06:54:37.209Z,64.8
2019-02-10T06:55:27.249Z,64.8
2019-02-10T06:56:17.862Z,64.8
2019-02-10T06:57:07.906Z,64.8
2019-02-10T06:57:57.414Z,64.8
2019-02-10T06:58:48.802Z,64.8
2019-02-10T06:59:37.806Z,64.8
2019-02-10T07:00:28.141Z,64.8
2019-02-10T07:01:17.933Z,64.8
2019-02-10T07:02:07.966Z,64.8
2019-02-10T07:02:57.774Z,64.7
2019-02-10T07:03:47.823Z,64.7
2019-02-10T07:06:13.546Z,64.7
2019-02-10T07:07:04.456Z,64.7
2019-02-10T07:07:54.506Z,64.7
2019-02-10T07:08:44.048Z,64.7
2019-02-10T07:09:34.373Z,64.7
2019-02-10T07:10:24.115Z,64.6
2019-02-10T07:11:13.613Z,64.6
2019-02-10T07:12:04.223Z,64.6
2019-02-10T07:12:54.840Z,64.6
2019-02-10T07:13:44.896Z,64.6
2019-02-10T07:14:34.970Z,64.6
2019-02-10T07:15:24.788Z,64.6
2019-02-10T07:16:14.520Z,64.6
2019-02-10T07:17:04.858Z,64.6
2019-02-10T07:17:54.907Z,64.6
2019-02-10T07:18:45.225Z,64.6
2019-02-10T07:19:35.344Z,64.6
2019-02-10T07:20:25.350Z,64.5
2019-02-10T07:21:15.405Z,64.5
2019-02-10T07:22:04.932Z,64.5
2019-02-10T07:22:55.547Z,64.5
2019-02-10T07:23:45.590Z,64.5
2019-02-10T07:24:35.129Z,64.5
2019-02-10T07:25:25.699Z,64.5
2019-02-10T07:26:15.228Z,64.5
2019-02-10T07:27:05.547Z,64.5
2019-02-10T07:27:55.594Z,64.4
2019-02-10T07:28:45.662Z,64.4
2019-02-10T07:29:35.455Z,64.4
2019-02-10T07:30:25.759Z,64.4
2019-02-10T07:31:15.839Z,64.4
2019-02-10T07:32:05.622Z,64.4
2019-02-10T07:32:56.234Z,64.4
2019-02-10T07:33:46.016Z,64.4
2019-02-10T07:34:36.075Z,64.4
2019-02-10T07:35:26.513Z,64.4
2019-02-10T07:36:15.640Z,64.4
2019-02-10T07:37:06.571Z,64.4
2019-02-10T07:37:56.594Z,64.3
2019-02-10T07:38:46.344Z,64.3
2019-02-10T07:39:36.429Z,64.3
2019-02-10T07:40:26.197Z,64.3
2019-02-10T07:41:16.013Z,64.3
2019-02-10T07:42:06.861Z,64.3
2019-02-10T07:42:56.389Z,64.3
2019-02-10T07:43:46.513Z,64.3
2019-02-10T07:44:36.758Z,64.3
2019-02-10T07:45:26.579Z,64.3
2019-02-10T07:46:16.888Z,64.3
2019-02-10T07:47:06.658Z,64.3
2019-02-10T07:47:57.837Z,64.3
2019-02-10T07:48:46.856Z,64.2
2019-02-10T07:49:36.918Z,64.2
2019-02-10T07:50:26.692Z,64.2
2019-02-10T07:51:17.235Z,64.2
2019-02-10T07:52:06.790Z,64.2
2019-02-10T07:52:56.870Z,64.2
2019-02-10T07:53:47.195Z,64.2
2019-02-10T07:54:44.698Z,64.1
2019-02-10T07:55:26.755Z,64.1
2019-02-10T07:56:17.597Z,64.1
2019-02-10T07:57:07.443Z,64.1
2019-02-10T07:57:57.199Z,64.1
2019-02-10T07:58:47.256Z,64.1
2019-02-10T07:59:37.580Z,64.1
2019-02-10T08:00:27.677Z,64.1
2019-02-10T08:01:17.725Z,64.1
2019-02-10T08:02:07.982Z,64.1
2019-02-10T08:02:57.275Z,64.1
2019-02-10T08:03:47.607Z,64.1
2019-02-10T08:04:37.939Z,64.1
2019-02-10T08:05:27.986Z,64
2019-02-10T08:06:17.780Z,64
2019-02-10T08:07:09.739Z,64
2019-02-10T08:07:58.169Z,64
2019-02-10T08:08:50.369Z,64
2019-02-10T08:09:37.964Z,64
2019-02-10T08:10:28.306Z,64
2019-02-10T08:11:18.329Z,63.9
2019-02-10T08:12:08.941Z,63.9
2019-02-10T08:12:58.464Z,63.9
2019-02-10T08:13:48.507Z,63.9
2019-02-10T08:14:38.846Z,63.9
2019-02-10T08:15:28.408Z,63.9
2019-02-10T08:16:18.966Z,63.9
2019-02-10T08:17:09.286Z,63.9
2019-02-10T08:17:57.949Z,63.9
2019-02-10T08:18:49.396Z,63.9
2019-02-10T08:19:39.456Z,63.9
2019-02-10T08:20:29.241Z,63.9
2019-02-10T08:21:19.574Z,63.9
2019-02-10T08:22:09.638Z,63.9
2019-02-10T08:22:58.856Z,63.9
2019-02-10T08:23:49.748Z,63.8
2019-02-10T08:24:38.976Z,63.8
2019-02-10T08:25:29.792Z,63.8
2019-02-10T08:26:19.943Z,63.8
2019-02-10T08:27:09.990Z,63.8
2019-02-10T08:27:59.817Z,63.8
2019-02-10T08:28:49.346Z,63.8
2019-02-10T08:29:39.943Z,63.8
2019-02-10T08:30:29.935Z,63.8
2019-02-10T08:31:19.707Z,63.8
2019-02-10T08:32:10.052Z,63.8
2019-02-10T08:33:00.103Z,63.7
2019-02-10T08:33:50.175Z,63.8
2019-02-10T08:34:38.910Z,63.7
2019-02-10T08:35:31.328Z,63.7
2019-02-10T08:36:20.055Z,63.7
2019-02-10T08:37:10.685Z,63.7
2019-02-10T08:38:00.194Z,63.7
2019-02-10T08:38:58.251Z,63.7
2019-02-10T08:39:40.292Z,63.6
2019-02-10T08:40:30.448Z,63.6
2019-02-10T08:41:20.967Z,63.6
2019-02-10T08:42:10.467Z,63.6
2019-02-10T08:43:01.077Z,63.6
2019-02-10T08:43:50.584Z,63.6
2019-02-10T08:44:40.919Z,63.6
2019-02-10T08:45:30.977Z,63.6
2019-02-10T08:46:21.040Z,63.6
2019-02-10T08:47:11.092Z,63.6
2019-02-10T08:48:01.469Z,63.5
2019-02-10T08:48:51.216Z,63.6
2019-02-10T08:49:41.214Z,63.6
2019-02-10T08:50:31.082Z,63.5
2019-02-10T08:51:21.114Z,63.5
2019-02-10T08:52:11.447Z,63.5
2019-02-10T08:53:01.502Z,63.5
2019-02-10T08:53:51.557Z,63.5
2019-02-10T08:54:41.622Z,63.4
2019-02-10T08:55:31.451Z,63.4
2019-02-10T08:56:21.746Z,63.4
2019-02-10T08:57:11.806Z,63.4
2019-02-10T08:58:01.385Z,63.4
2019-02-10T08:58:51.928Z,63.4
2019-02-10T08:59:41.986Z,63.4
2019-02-10T09:00:31.548Z,63.4
2019-02-10T09:01:21.837Z,63.4
2019-02-10T09:02:12.416Z,63.4
2019-02-10T09:03:02.483Z,63.4
2019-02-10T09:03:52.051Z,63.4
2019-02-10T09:04:42.323Z,63.4
2019-02-10T09:05:32.119Z,63.4
2019-02-10T09:06:21.895Z,63.4
2019-02-10T09:07:12.775Z,63.3
2019-02-10T09:08:02.880Z,63.4
2019-02-10T09:08:52.888Z,63.3
2019-02-10T09:09:42.683Z,63.3
2019-02-10T09:10:32.755Z,63.3
2019-02-10T09:11:22.535Z,63.3
2019-02-10T09:12:12.883Z,63.3
2019-02-10T09:13:03.190Z,63.3
2019-02-10T09:13:53.028Z,63.3
2019-02-10T09:14:42.747Z,63.3
2019-02-10T09:15:33.343Z,63.3
2019-02-10T09:16:22.658Z,63.3
2019-02-10T09:17:13.186Z,63.2
2019-02-10T09:18:03.273Z,63.2
2019-02-10T09:18:53.316Z,63.2
2019-02-10T09:19:43.357Z,63.2
2019-02-10T09:20:33.435Z,63.2
2019-02-10T09:21:22.932Z,63.2
2019-02-10T09:22:13.545Z,63.2
2019-02-10T09:23:03.872Z,63.1
2019-02-10T09:23:53.924Z,63.1
2019-02-10T09:24:43.165Z,63.1
2019-02-10T09:25:34.047Z,63.1
2019-02-10T09:26:23.819Z,63.1
2019-02-10T09:27:13.879Z,63.1
2019-02-10T09:28:03.934Z,63.1
2019-02-10T09:28:54.272Z,63.1
2019-02-10T09:29:43.844Z,63.1
2019-02-10T09:30:33.849Z,63.1
2019-02-10T09:31:24.454Z,63.1
2019-02-10T09:32:13.952Z,63.1
2019-02-10T09:33:04.014Z,63.1
2019-02-10T09:33:54.071Z,63.1
2019-02-10T09:34:44.129Z,63
2019-02-10T09:35:34.461Z,63
2019-02-10T09:36:24.529Z,63
2019-02-10T09:37:14.361Z,63
2019-02-10T09:38:04.356Z,63
2019-02-10T09:38:54.470Z,63
2019-02-10T09:39:44.473Z,63
2019-02-10T09:40:35.111Z,62.9
2019-02-10T09:41:25.149Z,62.9
2019-02-10T09:42:14.659Z,62.9
2019-02-10T09:43:04.991Z,62.9
2019-02-10T09:43:55.053Z,62.9
2019-02-10T09:44:44.836Z,62.9
2019-02-10T09:45:35.146Z,62.9
2019-02-10T09:46:25.562Z,62.9
2019-02-10T09:47:15.276Z,62.9
2019-02-10T09:48:05.344Z,62.9
2019-02-10T09:48:55.656Z,62.9
2019-02-10T09:49:45.180Z,62.9
2019-02-10T09:50:34.973Z,62.9
2019-02-10T09:51:25.835Z,62.8
2019-02-10T09:52:15.610Z,62.8
2019-02-10T09:53:05.751Z,62.9
2019-02-10T09:53:55.760Z,62.8
2019-02-10T09:54:45.785Z,62.8
2019-02-10T09:55:35.868Z,62.8
2019-02-10T09:56:25.923Z,62.8
2019-02-10T09:57:15.689Z,62.8
2019-02-10T09:58:05.745Z,62.8
2019-02-10T09:58:56.363Z,62.8
2019-02-10T09:59:46.140Z,62.8
2019-02-10T10:00:36.215Z,62.8
2019-02-10T10:01:26.278Z,62.8
2019-02-10T10:02:16.310Z,62.7
2019-02-10T10:03:06.662Z,62.8
2019-02-10T10:03:56.707Z,62.7
2019-02-10T10:04:46.500Z,62.7
2019-02-10T10:07:14.257Z,62.7
2019-02-10T10:08:04.041Z,62.6
2019-02-10T10:08:54.372Z,62.6
2019-02-10T10:09:44.420Z,62.6
2019-02-10T10:10:34.213Z,62.6
2019-02-10T10:11:24.537Z,62.6
2019-02-10T10:12:14.331Z,62.6
2019-02-10T10:13:04.691Z,62.6
2019-02-10T10:13:54.149Z,62.5
2019-02-10T10:14:44.229Z,62.5
2019-02-10T10:15:34.834Z,62.5
2019-02-10T10:16:24.894Z,62.5
2019-02-10T10:17:14.664Z,62.5
2019-02-10T10:18:04.464Z,62.5
2019-02-10T10:18:54.513Z,62.5
2019-02-10T10:19:44.556Z,62.5
2019-02-10T10:20:35.171Z,62.6
2019-02-10T10:21:24.718Z,62.6
2019-02-10T10:22:15.006Z,62.6
2019-02-10T10:23:04.556Z,62.6
2019-02-10T10:23:55.168Z,62.6
2019-02-10T10:24:53.779Z,62.6
2019-02-10T10:25:35.499Z,62.7
2019-02-10T10:26:25.579Z,62.7
2019-02-10T10:27:15.356Z,62.7
2019-02-10T10:28:05.738Z,62.8
2019-02-10T10:28:55.487Z,62.8
2019-02-10T10:29:45.803Z,62.8
2019-02-10T10:30:35.858Z,62.8
2019-02-10T10:31:25.924Z,62.8
2019-02-10T10:32:15.993Z,62.8
2019-02-10T10:33:05.758Z,62.8
2019-02-10T10:33:55.880Z,62.7
2019-02-10T10:34:45.873Z,62.8
2019-02-10T10:35:35.922Z,62.7
2019-02-10T10:36:26.262Z,62.7
2019-02-10T10:37:16.378Z,62.7
2019-02-10T10:38:06.104Z,62.7
2019-02-10T10:38:56.159Z,62.7
2019-02-10T10:39:46.219Z,62.7
2019-02-10T10:40:36.411Z,62.7
2019-02-10T10:41:26.642Z,62.7
2019-02-10T10:42:16.686Z,62.7
2019-02-10T10:43:06.736Z,62.7
2019-02-10T10:43:56.794Z,62.7
2019-02-10T10:44:46.853Z,62.7
2019-02-10T10:45:36.901Z,62.6
2019-02-10T10:46:26.961Z,62.6
2019-02-10T10:47:17.016Z,62.6
2019-02-10T10:48:06.803Z,62.6
2019-02-10T10:48:56.871Z,62.6
2019-02-10T10:49:46.930Z,62.6
2019-02-10T10:50:37.251Z,62.6
2019-02-10T10:51:27.027Z,62.6
2019-02-10T10:52:17.087Z,62.6
2019-02-10T10:53:06.930Z,62.6
2019-02-10T10:53:57.250Z,62.6
2019-02-10T10:54:47.542Z,62.6
2019-02-10T10:55:37.342Z,62.6
2019-02-10T10:56:27.667Z,62.6
2019-02-10T10:57:19.428Z,62.6
2019-02-10T10:58:07.764Z,62.6
2019-02-10T10:58:57.820Z,62.6
2019-02-10T10:59:47.870Z,62.6
2019-02-10T11:00:37.662Z,62.5
2019-02-10T11:01:29.544Z,62.5
2019-02-10T11:02:18.049Z,62.5
2019-02-10T11:03:08.115Z,62.5
2019-02-10T11:03:58.170Z,62.5
2019-02-10T11:04:48.223Z,62.5
2019-02-10T11:05:38.009Z,62.5
2019-02-10T11:06:28.351Z,62.5
2019-02-10T11:07:18.409Z,62.5
2019-02-10T11:08:07.917Z,62.5
2019-02-10T11:08:58.301Z,62.5
2019-02-10T11:09:48.582Z,62.4
2019-02-10T11:10:38.648Z,62.4
2019-02-10T11:11:28.692Z,62.4
2019-02-10T11:12:18.466Z,62.4
2019-02-10T11:13:08.825Z,62.4
2019-02-10T11:13:58.849Z,62.4
2019-02-10T11:14:48.936Z,62.4
2019-02-10T11:15:39.001Z,62.4
2019-02-10T11:16:29.120Z,62.4
2019-02-10T11:17:18.847Z,62.4
2019-02-10T11:18:08.619Z,62.4
2019-02-10T11:18:59.233Z,62.4
2019-02-10T11:19:49.339Z,62.4
2019-02-10T11:20:39.331Z,62.4
2019-02-10T11:21:28.879Z,62.3
2019-02-10T11:22:19.158Z,62.3
2019-02-10T11:23:09.241Z,62.3
2019-02-10T11:23:59.561Z,62.3
2019-02-10T11:24:49.607Z,62.3
2019-02-10T11:25:39.416Z,62.3
2019-02-10T11:26:29.727Z,62.2
2019-02-10T11:27:19.855Z,62.2
2019-02-10T11:28:09.558Z,62.2
2019-02-10T11:28:59.898Z,62.2
2019-02-10T11:29:49.678Z,62.1
2019-02-10T11:30:40.028Z,62.1
2019-02-10T11:31:30.106Z,62.1
2019-02-10T11:32:20.154Z,62.1
2019-02-10T11:33:09.925Z,62.1
2019-02-10T11:34:00.245Z,62
2019-02-10T11:34:49.488Z,62
2019-02-10T11:35:40.135Z,61.9
2019-02-10T11:36:30.420Z,61.9
2019-02-10T11:37:28.650Z,61.9
2019-02-10T11:38:10.565Z,61.9
2019-02-10T11:39:00.610Z,61.9
2019-02-10T11:39:50.667Z,61.8
2019-02-10T11:40:40.155Z,61.8
2019-02-10T11:41:30.497Z,61.8
2019-02-10T11:42:20.850Z,61.8
2019-02-10T11:43:10.880Z,61.8
2019-02-10T11:44:00.112Z,61.8
2019-02-10T11:44:50.728Z,61.8
2019-02-10T11:45:41.056Z,61.8
2019-02-10T11:46:30.545Z,61.8
2019-02-10T11:47:20.904Z,61.8
2019-02-10T11:48:11.817Z,61.7
2019-02-10T11:49:01.292Z,61.7
2019-02-10T11:49:51.079Z,61.7
2019-02-10T11:50:41.474Z,61.6
2019-02-10T11:51:30.917Z,61.6
2019-02-10T11:52:21.511Z,61.6
2019-02-10T11:53:11.566Z,61.6
2019-02-10T11:54:01.351Z,61.6
2019-02-10T11:54:51.444Z,61.6
2019-02-10T11:55:41.764Z,61.6
2019-02-10T11:56:31.819Z,61.6
2019-02-10T11:57:21.596Z,61.5
2019-02-10T11:58:11.919Z,61.5
2019-02-10T11:59:01.714Z,61.5
2019-02-10T11:59:52.049Z,61.5
2019-02-10T12:00:42.143Z,61.5
2019-02-10T12:01:32.234Z,61.5
2019-02-10T12:02:21.651Z,61.4
2019-02-10T12:03:12.001Z,61.4
2019-02-10T12:04:41.192Z,61.4
2019-02-10T12:07:13.636Z,61.4
2019-02-10T12:08:03.628Z,61.3
2019-02-10T12:08:53.973Z,61.3
2019-02-10T12:09:58.701Z,61.3
2019-02-10T12:10:34.073Z,61.3
2019-02-10T12:11:38.798Z,61.3
2019-02-10T12:12:13.989Z,61.3
2019-02-10T12:13:04.543Z,61.3
2019-02-10T12:13:54.603Z,61.2
2019-02-10T12:14:44.133Z,61.2
2019-02-10T12:15:33.880Z,61.2
2019-02-10T12:16:23.655Z,61.1
2019-02-10T12:17:14.468Z,61.1
2019-02-10T12:18:04.608Z,61.1
2019-02-10T12:18:54.932Z,61.1
2019-02-10T12:19:44.448Z,61.1
2019-02-10T12:20:34.840Z,61.1
2019-02-10T12:21:24.549Z,61.1
2019-02-10T12:22:14.888Z,61
2019-02-10T12:23:55.083Z,61
2019-02-10T12:24:44.797Z,61
2019-02-10T12:25:35.434Z,60.9
2019-02-10T12:26:25.497Z,60.9
2019-02-10T12:27:15.507Z,60.9
2019-02-10T12:28:05.041Z,60.9
2019-02-10T12:28:55.091Z,60.9
2019-02-10T12:29:45.138Z,60.9
2019-02-10T12:30:35.199Z,60.9
2019-02-10T12:31:25.582Z,60.9
2019-02-10T12:32:15.585Z,60.8
2019-02-10T12:33:05.689Z,60.8
2019-02-10T12:33:55.799Z,60.8
2019-02-10T12:34:45.780Z,60.8
2019-02-10T12:35:35.539Z,60.8
2019-02-10T12:36:26.401Z,60.7
2019-02-10T12:37:16.269Z,60.7
2019-02-10T12:38:06.312Z,60.7
2019-02-10T12:38:56.282Z,60.7
2019-02-10T12:39:46.133Z,60.6
2019-02-10T12:40:36.531Z,60.6
2019-02-10T12:41:26.937Z,60.6
2019-02-10T12:42:15.725Z,60.6
2019-02-10T12:43:06.656Z,60.6
2019-02-10T12:43:56.150Z,60.6
2019-02-10T12:44:46.751Z,60.6
2019-02-10T12:45:36.259Z,60.5
2019-02-10T12:46:26.595Z,60.5
2019-02-10T12:47:16.378Z,60.5
2019-02-10T12:48:13.208Z,60.4
2019-02-10T12:48:56.768Z,60.4
2019-02-10T12:49:47.465Z,60.4
2019-02-10T12:50:36.606Z,60.4
2019-02-10T12:51:26.933Z,60.4
2019-02-10T12:52:17.034Z,60.4
2019-02-10T12:53:07.318Z,60.4
2019-02-10T12:53:57.116Z,60.3
2019-02-10T12:54:46.601Z,60.3
2019-02-10T12:55:37.223Z,60.3
2019-02-10T12:56:27.569Z,60.3
2019-02-10T12:57:16.820Z,60.3
2019-02-10T12:58:07.401Z,60.3
2019-02-10T12:58:57.170Z,60.3
2019-02-10T12:59:47.776Z,60.2
2019-02-10T13:00:39.407Z,60.2
2019-02-10T13:01:26.787Z,60.1
2019-02-10T13:02:17.407Z,60.1
2019-02-10T13:03:08.038Z,60.1
2019-02-10T13:03:57.853Z,60.1
2019-02-10T13:04:48.148Z,60.1
2019-02-10T13:05:37.662Z,60.1
2019-02-10T13:06:27.717Z,60.1
2019-02-10T13:07:17.210Z,60
2019-02-10T13:08:08.102Z,60
2019-02-10T13:08:58.427Z,60
2019-02-10T13:09:48.218Z,59.9
2019-02-10T13:10:38.275Z,59.9
2019-02-10T13:11:28.602Z,59.9
2019-02-10T13:12:18.399Z,59.9
2019-02-10T13:13:07.636Z,59.9
2019-02-10T13:13:58.214Z,59.9
2019-02-10T13:14:48.004Z,59.8
2019-02-10T13:15:38.634Z,59.8
2019-02-10T13:16:28.952Z,59.8
2019-02-10T13:17:18.742Z,59.8
2019-02-10T13:18:09.086Z,59.8
2019-02-10T13:18:59.126Z,59.8
2019-02-10T13:19:48.623Z,59.8
2019-02-10T13:20:39.244Z,59.8
2019-02-10T13:21:28.471Z,59.7
2019-02-10T13:22:18.856Z,59.7
2019-02-10T13:23:08.591Z,59.6
2019-02-10T13:23:58.921Z,59.6
2019-02-10T13:24:49.269Z,59.6
2019-02-10T13:25:39.604Z,59.6
2019-02-10T13:26:28.683Z,59.6
2019-02-10T13:27:19.170Z,59.6
2019-02-10T13:28:08.943Z,59.5
2019-02-10T13:28:59.548Z,59.5
2019-02-10T13:29:49.615Z,59.5
2019-02-10T13:30:39.956Z,59.4
2019-02-10T13:31:29.200Z,59.4
2019-02-10T13:32:19.793Z,59.4
2019-02-10T13:33:10.050Z,59.4
2019-02-10T13:34:00.174Z,59.4
2019-02-10T13:34:50.517Z,59.4
2019-02-10T13:35:40.296Z,59.4
2019-02-10T13:36:30.090Z,59.4
2019-02-10T13:37:20.160Z,59.3
2019-02-10T13:38:10.203Z,59.3
2019-02-10T13:38:59.973Z,59.3
2019-02-10T13:39:50.322Z,59.3
2019-02-10T13:40:40.670Z,59.3
2019-02-10T13:41:30.423Z,59.3
2019-02-10T13:42:20.490Z,59.2
2019-02-10T13:43:10.542Z,59.2
2019-02-10T13:44:00.322Z,59.2
2019-02-10T13:44:50.670Z,59.2
2019-02-10T13:45:40.513Z,59.1
2019-02-10T13:46:31.050Z,59.1
2019-02-10T13:47:21.109Z,59.1
2019-02-10T13:48:10.900Z,59.1
2019-02-10T13:49:00.399Z,59.1
2019-02-10T13:49:51.007Z,59.1
2019-02-10T13:50:41.077Z,59
2019-02-10T13:51:31.192Z,59
2019-02-10T13:52:20.916Z,59
2019-02-10T13:53:12.459Z,58.9
2019-02-10T13:54:01.581Z,58.9
2019-02-10T13:54:51.649Z,58.9
2019-02-10T13:55:41.422Z,58.9
2019-02-10T13:56:31.754Z,58.9
2019-02-10T13:57:20.792Z,58.9
2019-02-10T13:58:11.321Z,58.9
2019-02-10T13:59:01.944Z,58.9
2019-02-10T13:59:51.448Z,58.8
2019-02-10T14:00:42.036Z,58.8
2019-02-10T14:01:31.634Z,58.8
2019-02-10T14:02:21.884Z,58.8
2019-02-10T14:03:10.908Z,58.8
2019-02-10T14:04:02.019Z,58.7
2019-02-10T14:04:52.358Z,58.7
2019-02-10T14:05:42.398Z,58.7
2019-02-10T14:08:13.756Z,58.6
2019-02-10T14:09:03.508Z,58.6
2019-02-10T14:09:54.144Z,58.6
2019-02-10T14:13:14.075Z,58.5
2019-02-10T14:14:04.421Z,58.5
2019-02-10T14:14:53.942Z,58.5
2019-02-10T14:15:44.536Z,58.4
2019-02-10T14:16:34.120Z,58.4
2019-02-10T14:17:24.092Z,58.4
2019-02-10T14:18:14.507Z,58.4
2019-02-10T14:19:04.273Z,58.4
2019-02-10T14:19:54.552Z,58.4
2019-02-10T14:20:44.880Z,58.4
2019-02-10T14:21:34.682Z,58.3
2019-02-10T14:22:24.225Z,58.3
2019-02-10T14:23:14.510Z,58.3
2019-02-10T14:24:04.847Z,58.3
2019-02-10T14:24:54.902Z,58.3
2019-02-10T14:25:44.694Z,58.3
2019-02-10T14:26:35.037Z,58.3
2019-02-10T14:27:24.807Z,58.3
2019-02-10T14:28:15.456Z,58.2
2019-02-10T14:29:07.072Z,58.2